sensor_id;sensor_type;location;lat;lon;timestamp;pressure;altitude;pressure_sealevel;temperature
19061;BMP280;9663;48.996;8.334;2023-04-15T00:01:25;99337.16;;;10.22
19061;BMP280;9663;48.996;8.334;2023-04-15T00:03:53;99331.41;;;10.12
19061;BMP280;9663;48.996;8.334;2023-04-15T00:06:20;99335.78;;;10.04
19061;BMP280;9663;48.996;8.334;2023-04-15T00:08:47;99334.16;;;9.99
19061;BMP280;9663;48.996;8.334;2023-04-15T00:11:13;99336.72;;;9.97
19061;BMP280;9663;48.996;8.334;2023-04-15T00:13:39;99331.69;;;9.96
19061;BMP280;9663;48.996;8.334;2023-04-15T00:16:07;99325.78;;;9.94
19061;BMP280;9663;48.996;8.334;2023-04-15T00:18:33;99326.66;;;9.94
19061;BMP280;9663;48.996;8.334;2023-04-15T00:20:59;99324.13;;;9.93
19061;BMP280;9663;48.996;8.334;2023-04-15T00:23:25;99323.25;;;9.95
19061;BMP280;9663;48.996;8.334;2023-04-15T00:25:51;99328.25;;;9.98
19061;BMP280;9663;48.996;8.334;2023-04-15T00:28:17;99320.69;;;9.97
19061;BMP280;9663;48.996;8.334;2023-04-15T00:30:43;99314.78;;;9.96
19061;BMP280;9663;48.996;8.334;2023-04-15T00:33:09;99318.13;;;9.98
19061;BMP280;9663;48.996;8.334;2023-04-15T00:35:35;99307.22;;;9.95
19061;BMP280;9663;48.996;8.334;2023-04-15T00:38:05;99308.97;;;9.90
19061;BMP280;9663;48.996;8.334;2023-04-15T00:40:33;99309.81;;;9.87
19061;BMP280;9663;48.996;8.334;2023-04-15T00:42:59;99307.34;;;9.86
19061;BMP280;9663;48.996;8.334;2023-04-15T00:45:25;99304.84;;;9.84
19061;BMP280;9663;48.996;8.334;2023-04-15T00:47:50;99309.03;;;9.84
19061;BMP280;9663;48.996;8.334;2023-04-15T00:50:16;99308.25;;;9.82
19061;BMP280;9663;48.996;8.334;2023-04-15T00:52:42;99312.44;;;9.83
19061;BMP280;9663;48.996;8.334;2023-04-15T00:55:08;99306.50;;;9.85
19061;BMP280;9663;48.996;8.334;2023-04-15T00:57:35;99308.97;;;9.90
19061;BMP280;9663;48.996;8.334;2023-04-15T01:00:01;99301.31;;;9.94
19061;BMP280;9663;48.996;8.334;2023-04-15T01:02:27;99296.13;;;10.00
19061;BMP280;9663;48.996;8.334;2023-04-15T01:04:53;99302.72;;;10.10
19061;BMP280;9663;48.996;8.334;2023-04-15T01:07:19;99300.94;;;10.15
19061;BMP280;9663;48.996;8.334;2023-04-15T01:09:44;99301.69;;;10.20
19061;BMP280;9663;48.996;8.334;2023-04-15T01:12:12;99299.94;;;10.23
19061;BMP280;9663;48.996;8.334;2023-04-15T01:14:40;99303.19;;;10.30
19061;BMP280;9663;48.996;8.334;2023-04-15T01:17:05;99297.25;;;10.34
19061;BMP280;9663;48.996;8.334;2023-04-15T01:19:32;99300.56;;;10.36
19061;BMP280;9663;48.996;8.334;2023-04-15T01:21:58;99314.03;;;10.38
19061;BMP280;9663;48.996;8.334;2023-04-15T01:24:26;99314.84;;;10.40
19061;BMP280;9663;48.996;8.334;2023-04-15T01:26:52;99303.94;;;10.36
19061;BMP280;9663;48.996;8.334;2023-04-15T01:29:18;99304.81;;;10.35
19061;BMP280;9663;48.996;8.334;2023-04-15T01:31:52;99305.63;;;10.36
19061;BMP280;9663;48.996;8.334;2023-04-15T01:34:18;99302.31;;;10.34
19061;BMP280;9663;48.996;8.334;2023-04-15T01:36:44;99304.88;;;10.32
19061;BMP280;9663;48.996;8.334;2023-04-15T01:39:09;99305.69;;;10.33
19061;BMP280;9663;48.996;8.334;2023-04-15T01:41:35;99306.63;;;10.29
19061;BMP280;9663;48.996;8.334;2023-04-15T01:44:01;99298.28;;;10.23
19061;BMP280;9663;48.996;8.334;2023-04-15T01:46:26;99300.88;;;10.20
19061;BMP280;9663;48.996;8.334;2023-04-15T01:48:52;99295.88;;;10.15
19061;BMP280;9663;48.996;8.334;2023-04-15T01:51:18;99306.91;;;10.13
19061;BMP280;9663;48.996;8.334;2023-04-15T01:53:44;99305.38;;;10.04
19061;BMP280;9663;48.996;8.334;2023-04-15T01:56:10;99299.56;;;9.99
19061;BMP280;9663;48.996;8.334;2023-04-15T01:58:36;99303.00;;;9.94
19061;BMP280;9663;48.996;8.334;2023-04-15T02:01:02;99296.47;;;9.79
19061;BMP280;9663;48.996;8.334;2023-04-15T02:03:29;99303.22;;;9.79
19061;BMP280;9663;48.996;8.334;2023-04-15T02:05:54;99293.25;;;9.70
19061;BMP280;9663;48.996;8.334;2023-04-15T02:08:21;99311.78;;;9.71
19061;BMP280;9663;48.996;8.334;2023-04-15T02:10:46;99306.78;;;9.66
19061;BMP280;9663;48.996;8.334;2023-04-15T02:13:12;99316.13;;;9.64
19061;BMP280;9663;48.996;8.334;2023-04-15T02:15:38;99320.53;;;9.52
19061;BMP280;9663;48.996;8.334;2023-04-15T02:18:04;99319.84;;;9.39
19061;BMP280;9663;48.996;8.334;2023-04-15T02:20:29;99321.72;;;9.29
19061;BMP280;9663;48.996;8.334;2023-04-15T02:22:55;99313.44;;;9.16
19061;BMP280;9663;48.996;8.334;2023-04-15T02:25:21;99322.00;;;9.08
19061;BMP280;9663;48.996;8.334;2023-04-15T02:27:47;99323.72;;;9.04
19061;BMP280;9663;48.996;8.334;2023-04-15T02:30:13;99322.84;;;9.05
19061;BMP280;9663;48.996;8.334;2023-04-15T02:32:40;99318.69;;;9.04
19061;BMP280;9663;48.996;8.334;2023-04-15T02:35:08;99316.13;;;9.07
19061;BMP280;9663;48.996;8.334;2023-04-15T02:37:36;99317.75;;;9.08
19061;BMP280;9663;48.996;8.334;2023-04-15T02:40:09;99320.28;;;9.10
19061;BMP280;9663;48.996;8.334;2023-04-15T02:42:41;99318.53;;;9.13
19061;BMP280;9663;48.996;8.334;2023-04-15T02:45:09;99316.03;;;9.10
19061;BMP280;9663;48.996;8.334;2023-04-15T02:47:36;99324.47;;;9.12
19061;BMP280;9663;48.996;8.334;2023-04-15T02:50:07;99331.97;;;9.17
19061;BMP280;9663;48.996;8.334;2023-04-15T02:52:33;99321.06;;;9.15
19061;BMP280;9663;48.996;8.334;2023-04-15T02:54:59;99322.75;;;9.16
19061;BMP280;9663;48.996;8.334;2023-04-15T02:57:27;99322.72;;;9.17
19061;BMP280;9663;48.996;8.334;2023-04-15T02:59:56;99324.38;;;9.18
19061;BMP280;9663;48.996;8.334;2023-04-15T03:02:21;99316.00;;;9.15
19061;BMP280;9663;48.996;8.334;2023-04-15T03:04:47;99325.28;;;9.14
19061;BMP280;9663;48.996;8.334;2023-04-15T03:07:13;99326.13;;;9.13
19061;BMP280;9663;48.996;8.334;2023-04-15T03:09:39;99319.47;;;9.08
19061;BMP280;9663;48.996;8.334;2023-04-15T03:12:05;99319.47;;;9.08
19061;BMP280;9663;48.996;8.334;2023-04-15T03:14:31;99326.22;;;9.07
19061;BMP280;9663;48.996;8.334;2023-04-15T03:16:57;99322.00;;;9.08
19061;BMP280;9663;48.996;8.334;2023-04-15T03:19:24;99326.16;;;9.10
19061;BMP280;9663;48.996;8.334;2023-04-15T03:21:50;99314.41;;;9.09
19061;BMP280;9663;48.996;8.334;2023-04-15T03:24:16;99326.16;;;9.10
19061;BMP280;9663;48.996;8.334;2023-04-15T03:26:42;99316.91;;;9.09
19061;BMP280;9663;48.996;8.334;2023-04-15T03:29:08;99319.47;;;9.08
19061;BMP280;9663;48.996;8.334;2023-04-15T03:31:34;99327.03;;;9.09
19061;BMP280;9663;48.996;8.334;2023-04-15T03:34:00;99314.44;;;9.05
19061;BMP280;9663;48.996;8.334;2023-04-15T03:36:28;99322.03;;;9.03
19061;BMP280;9663;48.996;8.334;2023-04-15T03:38:54;99330.56;;;8.98
19061;BMP280;9663;48.996;8.334;2023-04-15T03:41:21;99329.81;;;8.89
19061;BMP280;9663;48.996;8.334;2023-04-15T03:43:47;99339.94;;;8.87
19061;BMP280;9663;48.996;8.334;2023-04-15T03:46:12;99330.78;;;8.80
19061;BMP280;9663;48.996;8.334;2023-04-15T03:48:38;99341.72;;;8.81
19061;BMP280;9663;48.996;8.334;2023-04-15T03:51:03;99345.16;;;8.75
19061;BMP280;9663;48.996;8.334;2023-04-15T03:53:29;99338.50;;;8.67
19061;BMP280;9663;48.996;8.334;2023-04-15T03:55:55;99341.06;;;8.64
19061;BMP280;9663;48.996;8.334;2023-04-15T03:58:21;99325.97;;;8.58
19061;BMP280;9663;48.996;8.334;2023-04-15T04:00:46;99324.31;;;8.55
19061;BMP280;9663;48.996;8.334;2023-04-15T04:03:12;99326.84;;;8.57
19061;BMP280;9663;48.996;8.334;2023-04-15T04:05:38;99323.50;;;8.53
19061;BMP280;9663;48.996;8.334;2023-04-15T04:08:06;99324.34;;;8.52
19061;BMP280;9663;48.996;8.334;2023-04-15T04:10:32;99322.69;;;8.50
19061;BMP280;9663;48.996;8.334;2023-04-15T04:12:57;99335.28;;;8.53
19061;BMP280;9663;48.996;8.334;2023-04-15T04:15:23;99332.84;;;8.47
19061;BMP280;9663;48.996;8.334;2023-04-15T04:17:48;99336.22;;;8.43
19061;BMP280;9663;48.996;8.334;2023-04-15T04:20:14;99337.16;;;8.35
19061;BMP280;9663;48.996;8.334;2023-04-15T04:22:40;99338.06;;;8.28
19061;BMP280;9663;48.996;8.334;2023-04-15T04:25:07;99347.38;;;8.23
19061;BMP280;9663;48.996;8.334;2023-04-15T04:27:35;99339.00;;;8.21
19061;BMP280;9663;48.996;8.334;2023-04-15T04:30:00;99334.00;;;8.13
19061;BMP280;9663;48.996;8.334;2023-04-15T04:32:26;99344.09;;;8.15
19061;BMP280;9663;48.996;8.334;2023-04-15T04:34:52;99352.50;;;8.15
19061;BMP280;9663;48.996;8.334;2023-04-15T04:37:18;99346.63;;;8.12
19061;BMP280;9663;48.996;8.334;2023-04-15T04:39:43;99352.53;;;8.12
19061;BMP280;9663;48.996;8.334;2023-04-15T04:42:09;99352.47;;;8.17
19061;BMP280;9663;48.996;8.334;2023-04-15T04:44:35;99351.63;;;8.19
19061;BMP280;9663;48.996;8.334;2023-04-15T04:47:00;99361.72;;;8.24
19061;BMP280;9663;48.996;8.334;2023-04-15T04:49:26;99354.06;;;8.28
19061;BMP280;9663;48.996;8.334;2023-04-15T04:51:52;99362.44;;;8.33
19061;BMP280;9663;48.996;8.334;2023-04-15T04:54:17;99358.25;;;8.34
19061;BMP280;9663;48.996;8.334;2023-04-15T04:56:43;99364.88;;;8.42
19061;BMP280;9663;48.996;8.334;2023-04-15T04:59:09;99369.06;;;8.46
19061;BMP280;9663;48.996;8.334;2023-04-15T05:01:34;99368.22;;;8.46
19061;BMP280;9663;48.996;8.334;2023-04-15T05:04:00;99374.09;;;8.49
19061;BMP280;9663;48.996;8.334;2023-04-15T05:06:26;99370.66;;;8.51
19061;BMP280;9663;48.996;8.334;2023-04-15T05:08:52;99364.81;;;8.50
19061;BMP280;9663;48.996;8.334;2023-04-15T05:11:17;99359.72;;;8.51
19061;BMP280;9663;48.996;8.334;2023-04-15T05:13:43;99366.34;;;8.62
19061;BMP280;9663;48.996;8.334;2023-04-15T05:16:09;99367.16;;;8.66
19061;BMP280;9663;48.996;8.334;2023-04-15T05:18:34;99374.66;;;8.75
19061;BMP280;9663;48.996;8.334;2023-04-15T05:21:01;99377.13;;;8.78
19061;BMP280;9663;48.996;8.334;2023-04-15T05:23:27;99369.47;;;8.85
19061;BMP280;9663;48.996;8.334;2023-04-15T05:25:52;99371.06;;;8.92
19061;BMP280;9663;48.996;8.334;2023-04-15T05:28:18;99378.50;;;9.04
19061;BMP280;9663;48.996;8.334;2023-04-15T05:30:44;99378.38;;;9.16
19061;BMP280;9663;48.996;8.334;2023-04-15T05:33:10;99377.41;;;9.27
19061;BMP280;9663;48.996;8.334;2023-04-15T05:35:36;99370.50;;;9.38
19061;BMP280;9663;48.996;8.334;2023-04-15T05:38:01;99373.78;;;9.44
19061;BMP280;9663;48.996;8.334;2023-04-15T05:40:29;99376.97;;;9.60
19061;BMP280;9663;48.996;8.334;2023-04-15T05:42:54;99374.28;;;9.69
19061;BMP280;9663;48.996;8.334;2023-04-15T05:45:20;99363.13;;;9.80
19061;BMP280;9663;48.996;8.334;2023-04-15T05:47:46;99368.06;;;9.89
19061;BMP280;9663;48.996;8.334;2023-04-15T05:50:11;99368.78;;;10.00
19061;BMP280;9663;48.996;8.334;2023-04-15T05:52:37;99376.94;;;10.15
19061;BMP280;9663;48.996;8.334;2023-04-15T05:55:03;99384.41;;;10.25
19061;BMP280;9663;48.996;8.334;2023-04-15T05:57:29;99384.41;;;10.25
19061;BMP280;9663;48.996;8.334;2023-04-15T05:59:54;99385.19;;;10.29
19061;BMP280;9663;48.996;8.334;2023-04-15T06:02:21;99383.41;;;10.34
19061;BMP280;9663;48.996;8.334;2023-04-15T06:04:47;99392.56;;;10.41
19061;BMP280;9663;48.996;8.334;2023-04-15T06:07:13;99382.44;;;10.41
19061;BMP280;9663;48.996;8.334;2023-04-15T06:09:38;99386.56;;;10.45
19061;BMP280;9663;48.996;8.334;2023-04-15T06:12:05;99386.41;;;10.55
19061;BMP280;9663;48.996;8.334;2023-04-15T06:14:31;99381.22;;;10.60
19061;BMP280;9663;48.996;8.334;2023-04-15T06:16:56;99384.41;;;10.70
19061;BMP280;9663;48.996;8.334;2023-04-15T06:19:22;99390.22;;;10.77
19061;BMP280;9663;48.996;8.334;2023-04-15T06:21:48;99391.78;;;10.84
19061;BMP280;9663;48.996;8.334;2023-04-15T06:24:13;99384.88;;;10.92
19061;BMP280;9663;48.996;8.334;2023-04-15T06:26:39;99400.66;;;11.06
19061;BMP280;9663;48.996;8.334;2023-04-15T06:29:05;99401.34;;;11.12
19061;BMP280;9663;48.996;8.334;2023-04-15T06:31:31;99401.13;;;11.25
19061;BMP280;9663;48.996;8.334;2023-04-15T06:33:56;99398.28;;;11.39
19061;BMP280;9663;48.996;8.334;2023-04-15T06:36:22;99392.13;;;11.52
19061;BMP280;9663;48.996;8.334;2023-04-15T06:38:47;99393.63;;;11.60
19061;BMP280;9663;48.996;8.334;2023-04-15T06:41:13;99387.44;;;11.71
19061;BMP280;9663;48.996;8.334;2023-04-15T06:43:39;99387.03;;;11.89
19061;BMP280;9663;48.996;8.334;2023-04-15T06:46:04;99390.78;;;12.09
19061;BMP280;9663;48.996;8.334;2023-04-15T06:48:30;99384.47;;;12.25
19061;BMP280;9663;48.996;8.334;2023-04-15T06:50:56;99380.53;;;12.45
19061;BMP280;9663;48.996;8.334;2023-04-15T06:53:24;99376.63;;;12.64
19061;BMP280;9663;48.996;8.334;2023-04-15T06:55:52;99382.88;;;12.86
19061;BMP280;9663;48.996;8.334;2023-04-15T06:58:18;99367.16;;;13.02
19061;BMP280;9663;48.996;8.334;2023-04-15T07:00:43;99373.44;;;13.20
19061;BMP280;9663;48.996;8.334;2023-04-15T07:03:11;99380.47;;;13.40
19061;BMP280;9663;48.996;8.334;2023-04-15T07:05:37;99372.50;;;13.51
19061;BMP280;9663;48.996;8.334;2023-04-15T07:08:04;99376.19;;;13.69
19061;BMP280;9663;48.996;8.334;2023-04-15T07:10:30;99387.53;;;13.87
19061;BMP280;9663;48.996;8.334;2023-04-15T07:12:56;99376.25;;;13.94
19061;BMP280;9663;48.996;8.334;2023-04-15T07:15:22;99382.75;;;14.04
19061;BMP280;9663;48.996;8.334;2023-04-15T07:17:48;99374.06;;;14.10
19061;BMP280;9663;48.996;8.334;2023-04-15T07:20:13;99371.59;;;14.08
19061;BMP280;9663;48.996;8.334;2023-04-15T07:22:39;99378.38;;;14.09
19061;BMP280;9663;48.996;8.334;2023-04-15T07:25:06;99375.03;;;14.07
19061;BMP280;9663;48.996;8.334;2023-04-15T07:27:32;99375.72;;;14.11
19061;BMP280;9663;48.996;8.334;2023-04-15T07:29:58;99375.66;;;14.13
19061;BMP280;9663;48.996;8.334;2023-04-15T07:32:23;99384.69;;;14.23
19061;BMP280;9663;48.996;8.334;2023-04-15T07:34:49;99390.41;;;14.29
19061;BMP280;9663;48.996;8.334;2023-04-15T07:37:14;99386.91;;;14.33
19061;BMP280;9663;48.996;8.334;2023-04-15T07:39:40;99379.09;;;14.38
19061;BMP280;9663;48.996;8.334;2023-04-15T07:42:07;99381.41;;;14.45
19061;BMP280;9663;48.996;8.334;2023-04-15T07:44:33;99394.50;;;14.59
19061;BMP280;9663;48.996;8.334;2023-04-15T07:46:58;99390.94;;;14.64
19061;BMP280;9663;48.996;8.334;2023-04-15T07:49:24;99389.78;;;14.73
19061;BMP280;9663;48.996;8.334;2023-04-15T07:51:50;99392.75;;;14.85
19061;BMP280;9663;48.996;8.334;2023-04-15T07:54:16;99384.06;;;14.91
19061;BMP280;9663;48.996;8.334;2023-04-15T07:56:41;99390.47;;;15.02
19061;BMP280;9663;48.996;8.334;2023-04-15T07:59:07;99389.25;;;15.12
19061;BMP280;9663;48.996;8.334;2023-04-15T08:01:34;99386.69;;;15.12
19061;BMP280;9663;48.996;8.334;2023-04-15T08:04:01;99388.16;;;15.19
19061;BMP280;9663;48.996;8.334;2023-04-15T08:06:27;99392.16;;;15.26
19061;BMP280;9663;48.996;8.334;2023-04-15T08:08:53;99380.88;;;15.31
19061;BMP280;9663;48.996;8.334;2023-04-15T08:11:20;99399.88;;;15.47
19061;BMP280;9663;48.996;8.334;2023-04-15T08:13:46;99388.53;;;15.54
19061;BMP280;9663;48.996;8.334;2023-04-15T08:16:24;99384.63;;;15.67
19061;BMP280;9663;48.996;8.334;2023-04-15T08:18:52;99384.22;;;15.77
19061;BMP280;9663;48.996;8.334;2023-04-15T08:21:19;99388.66;;;15.93
19061;BMP280;9663;48.996;8.334;2023-04-15T08:23:48;99383.97;;;16.04
19061;BMP280;9663;48.996;8.334;2023-04-15T08:26:18;99392.69;;;16.22
19061;BMP280;9663;48.996;8.334;2023-04-15T08:28:45;99391.94;;;16.39
19061;BMP280;9663;48.996;8.334;2023-04-15T08:31:13;99387.97;;;16.52
19061;BMP280;9663;48.996;8.334;2023-04-15T08:33:39;99385.41;;;16.72
19061;BMP280;9663;48.996;8.334;2023-04-15T08:36:05;99391.88;;;17.00
19061;BMP280;9663;48.996;8.334;2023-04-15T08:38:32;99387.44;;;17.23
19061;BMP280;9663;48.996;8.334;2023-04-15T08:41:02;99391.28;;;17.52
19061;BMP280;9663;48.996;8.334;2023-04-15T08:43:34;99389.44;;;17.72
19061;BMP280;9663;48.996;8.334;2023-04-15T08:46:01;99391.81;;;17.76
19061;BMP280;9663;48.996;8.334;2023-04-15T08:48:28;99392.63;;;17.77
19061;BMP280;9663;48.996;8.334;2023-04-15T08:50:57;99386.81;;;17.73
19061;BMP280;9663;48.996;8.334;2023-04-15T08:53:24;99394.09;;;17.82
19061;BMP280;9663;48.996;8.334;2023-04-15T08:55:51;99386.50;;;17.97
19061;BMP280;9663;48.996;8.334;2023-04-15T08:58:19;99393.31;;;18.17
19061;BMP280;9663;48.996;8.334;2023-04-15T09:00:44;99389.38;;;18.27
19061;BMP280;9663;48.996;8.334;2023-04-15T09:03:10;99392.56;;;18.32
19061;BMP280;9663;48.996;8.334;2023-04-15T09:05:37;99387.97;;;18.38
19061;BMP280;9663;48.996;8.334;2023-04-15T09:08:04;99388.03;;;18.53
19061;BMP280;9663;48.996;8.334;2023-04-15T09:10:32;99396.25;;;18.77
19061;BMP280;9663;48.996;8.334;2023-04-15T09:12:58;99392.53;;;18.99
19061;BMP280;9663;48.996;8.334;2023-04-15T09:15:27;99385.63;;;19.16
19061;BMP280;9663;48.996;8.334;2023-04-15T09:17:54;99392.72;;;19.28
19061;BMP280;9663;48.996;8.334;2023-04-15T09:20:21;99394.50;;;19.43
19061;BMP280;9663;48.996;8.334;2023-04-15T09:22:48;99393.09;;;19.53
19061;BMP280;9663;48.996;8.334;2023-04-15T09:27:51;99406.25;;;19.62
19061;BMP280;9663;48.996;8.334;2023-04-15T09:30:17;99402.56;;;19.68
19061;BMP280;9663;48.996;8.334;2023-04-15T09:32:55;99405.78;;;19.71
19061;BMP280;9663;48.996;8.334;2023-04-15T09:35:22;99415.50;;;19.81
19061;BMP280;9663;48.996;8.334;2023-04-15T09:37:49;99420.09;;;19.92
19061;BMP280;9663;48.996;8.334;2023-04-15T09:40:34;99411.13;;;19.99
19061;BMP280;9663;48.996;8.334;2023-04-15T09:43:04;99410.28;;;20.13
19061;BMP280;9663;48.996;8.334;2023-04-15T09:45:33;99420.84;;;20.24
19061;BMP280;9663;48.996;8.334;2023-04-15T09:48:16;99422.06;;;20.33
19061;BMP280;9663;48.996;8.334;2023-04-15T09:50:42;99419.19;;;20.37
19061;BMP280;9663;48.996;8.334;2023-04-15T09:53:10;99420.53;;;20.44
19061;BMP280;9663;48.996;8.334;2023-04-15T09:55:43;99431.97;;;20.54
19061;BMP280;9663;48.996;8.334;2023-04-15T09:58:27;99418.63;;;20.48
19061;BMP280;9663;48.996;8.334;2023-04-15T10:00:56;99424.66;;;20.47
19061;BMP280;9663;48.996;8.334;2023-04-15T10:03:25;99431.41;;;20.49
19061;BMP280;9663;48.996;8.334;2023-04-15T10:05:54;99433.44;;;20.58
19061;BMP280;9663;48.996;8.334;2023-04-15T10:08:27;99438.66;;;20.72
19061;BMP280;9663;48.996;8.334;2023-04-15T10:10:53;99432.50;;;20.74
19061;BMP280;9663;48.996;8.334;2023-04-15T10:13:23;99437.75;;;20.73
19061;BMP280;9663;48.996;8.334;2023-04-15T10:15:55;99444.13;;;20.81
19061;BMP280;9663;48.996;8.334;2023-04-15T10:18:24;99432.09;;;20.82
19061;BMP280;9663;48.996;8.334;2023-04-15T10:20:52;99436.31;;;20.83
19061;BMP280;9663;48.996;8.334;2023-04-15T10:23:20;99436.03;;;20.87
19061;BMP280;9663;48.996;8.334;2023-04-15T10:25:48;99436.91;;;21.01
19061;BMP280;9663;48.996;8.334;2023-04-15T10:28:15;99431.03;;;21.13
19061;BMP280;9663;48.996;8.334;2023-04-15T10:30:42;99432.06;;;21.25
19061;BMP280;9663;48.996;8.334;2023-04-15T10:33:09;99429.16;;;21.29
19061;BMP280;9663;48.996;8.334;2023-04-15T10:35:36;99433.16;;;21.35
19061;BMP280;9663;48.996;8.334;2023-04-15T10:40:52;99431.88;;;21.28
19061;BMP280;9663;48.996;8.334;2023-04-15T10:43:26;99439.50;;;21.29
19061;BMP280;9663;48.996;8.334;2023-04-15T10:45:52;99441.97;;;21.31
19061;BMP280;9663;48.996;8.334;2023-04-15T10:48:18;99446.25;;;21.45
19061;BMP280;9663;48.996;8.334;2023-04-15T10:50:56;99440.53;;;21.68
19061;BMP280;9663;48.996;8.334;2023-04-15T10:53:28;99440.03;;;21.89
19061;BMP280;9663;48.996;8.334;2023-04-15T10:55:57;99448.84;;;21.99
19061;BMP280;9663;48.996;8.334;2023-04-15T10:58:25;99442.94;;;22.11
19061;BMP280;9663;48.996;8.334;2023-04-15T11:00:52;99444.00;;;22.35
19061;BMP280;9663;48.996;8.334;2023-04-15T11:03:39;99450.47;;;22.54
19061;BMP280;9663;48.996;8.334;2023-04-15T11:06:06;99452.38;;;22.77
19061;BMP280;9663;48.996;8.334;2023-04-15T11:08:58;99449.25;;;22.98
19061;BMP280;9663;48.996;8.334;2023-04-15T11:12:07;99454.84;;;23.17
19061;BMP280;9663;48.996;8.334;2023-04-15T11:14:39;99446.75;;;23.34
19061;BMP280;9663;48.996;8.334;2023-04-15T11:17:06;99450.88;;;23.49
19061;BMP280;9663;48.996;8.334;2023-04-15T11:19:38;99455.16;;;23.62
19061;BMP280;9663;48.996;8.334;2023-04-15T11:22:10;99451.94;;;23.71
19061;BMP280;9663;48.996;8.334;2023-04-15T11:24:46;99455.22;;;23.85
19061;BMP280;9663;48.996;8.334;2023-04-15T11:27:22;99452.66;;;24.08
19061;BMP280;9663;48.996;8.334;2023-04-15T11:29:48;99442.34;;;24.32
19061;BMP280;9663;48.996;8.334;2023-04-15T11:32:13;99451.88;;;24.54
19061;BMP280;9663;48.996;8.334;2023-04-15T11:34:39;99451.66;;;24.68
19061;BMP280;9663;48.996;8.334;2023-04-15T11:37:05;99455.81;;;24.71
19061;BMP280;9663;48.996;8.334;2023-04-15T11:39:32;99461.13;;;24.69
19061;BMP280;9663;48.996;8.334;2023-04-15T11:41:58;99450.91;;;24.89
19061;BMP280;9663;48.996;8.334;2023-04-15T11:44:23;99459.72;;;25.10
19061;BMP280;9663;48.996;8.334;2023-04-15T11:46:49;99461.06;;;25.27
19061;BMP280;9663;48.996;8.334;2023-04-15T11:49:28;99452.09;;;25.41
19061;BMP280;9663;48.996;8.334;2023-04-15T11:51:55;99447.97;;;25.61
19061;BMP280;9663;48.996;8.334;2023-04-15T11:54:21;99453.53;;;26.00
19061;BMP280;9663;48.996;8.334;2023-04-15T11:56:51;99452.06;;;26.28
19061;BMP280;9663;48.996;8.334;2023-04-15T11:59:17;99462.25;;;26.52
19061;BMP280;9663;48.996;8.334;2023-04-15T12:01:43;99473.72;;;26.60
19061;BMP280;9663;48.996;8.334;2023-04-15T12:04:16;99465.25;;;26.47
19061;BMP280;9663;48.996;8.334;2023-04-15T12:06:45;99476.59;;;26.46
19061;BMP280;9663;48.996;8.334;2023-04-15T12:09:15;99465.53;;;26.64
19061;BMP280;9663;48.996;8.334;2023-04-15T12:11:56;99477.00;;;26.62
19061;BMP280;9663;48.996;8.334;2023-04-15T12:14:30;99477.81;;;26.63
19061;BMP280;9663;48.996;8.334;2023-04-15T12:19:35;99479.09;;;27.60
19061;BMP280;9663;48.996;8.334;2023-04-15T12:22:05;99475.34;;;28.31
19061;BMP280;9663;48.996;8.334;2023-04-15T12:24:35;99480.34;;;29.00
19061;BMP280;9663;48.996;8.334;2023-04-15T12:27:13;99475.91;;;29.83
19061;BMP280;9663;48.996;8.334;2023-04-15T12:29:41;99480.47;;;30.87
19061;BMP280;9663;48.996;8.334;2023-04-15T12:32:16;99487.94;;;31.42
19061;BMP280;9663;48.996;8.334;2023-04-15T12:34:52;99482.66;;;31.92
19061;BMP280;9663;48.996;8.334;2023-04-15T12:37:21;99475.31;;;32.44
19061;BMP280;9663;48.996;8.334;2023-04-15T12:39:48;99477.69;;;32.14
19061;BMP280;9663;48.996;8.334;2023-04-15T12:42:16;99499.78;;;32.12
19061;BMP280;9663;48.996;8.334;2023-04-15T12:44:42;99482.06;;;32.47
19061;BMP280;9663;48.996;8.334;2023-04-15T12:47:09;99498.78;;;32.54
19061;BMP280;9663;48.996;8.334;2023-04-15T12:49:36;99485.84;;;32.60
19061;BMP280;9663;48.996;8.334;2023-04-15T12:52:03;99495.97;;;32.39
19061;BMP280;9663;48.996;8.334;2023-04-15T12:54:30;99497.16;;;31.79
19061;BMP280;9663;48.996;8.334;2023-04-15T12:56:57;99497.06;;;30.95
19061;BMP280;9663;48.996;8.334;2023-04-15T12:59:23;99506.59;;;30.08
19061;BMP280;9663;48.996;8.334;2023-04-15T13:01:50;99509.97;;;29.36
19061;BMP280;9663;48.996;8.334;2023-04-15T13:04:17;99520.06;;;28.75
19061;BMP280;9663;48.996;8.334;2023-04-15T13:06:43;99517.72;;;28.14
19061;BMP280;9663;48.996;8.334;2023-04-15T13:09:09;99527.84;;;27.58
19061;BMP280;9663;48.996;8.334;2023-04-15T13:11:35;99523.78;;;27.04
19061;BMP280;9663;48.996;8.334;2023-04-15T13:14:03;99523.47;;;26.56
19061;BMP280;9663;48.996;8.334;2023-04-15T13:16:30;99528.50;;;26.15
19061;BMP280;9663;48.996;8.334;2023-04-15T13:18:58;99534.28;;;25.86
19061;BMP280;9663;48.996;8.334;2023-04-15T13:21:24;99526.31;;;25.55
19061;BMP280;9663;48.996;8.334;2023-04-15T13:23:50;99530.09;;;25.29
19061;BMP280;9663;48.996;8.334;2023-04-15T13:26:16;99540.09;;;24.99
19061;BMP280;9663;48.996;8.334;2023-04-15T13:28:42;99541.19;;;24.61
19061;BMP280;9663;48.996;8.334;2023-04-15T13:31:08;99539.53;;;24.25
19061;BMP280;9663;48.996;8.334;2023-04-15T13:33:33;99553.56;;;23.98
19061;BMP280;9663;48.996;8.334;2023-04-15T13:35:59;99558.56;;;23.76
19061;BMP280;9663;48.996;8.334;2023-04-15T13:38:25;99557.09;;;23.59
19061;BMP280;9663;48.996;8.334;2023-04-15T13:40:51;99559.78;;;23.46
19061;BMP280;9663;48.996;8.334;2023-04-15T13:43:17;99560.50;;;23.35
19061;BMP280;9663;48.996;8.334;2023-04-15T13:45:43;99569.34;;;23.19
19061;BMP280;9663;48.996;8.334;2023-04-15T13:48:09;99574.81;;;23.02
19061;BMP280;9663;48.996;8.334;2023-04-15T13:50:35;99572.34;;;22.87
19061;BMP280;9663;48.996;8.334;2023-04-15T13:53:01;99572.59;;;22.70
19061;BMP280;9663;48.996;8.334;2023-04-15T13:55:26;99590.44;;;22.61
19061;BMP280;9663;48.996;8.334;2023-04-15T13:57:52;99591.19;;;22.49
19061;BMP280;9663;48.996;8.334;2023-04-15T14:00:19;99592.69;;;22.39
19061;BMP280;9663;48.996;8.334;2023-04-15T14:02:45;99605.28;;;22.31
19061;BMP280;9663;48.996;8.334;2023-04-15T14:05:11;99593.25;;;22.16
19061;BMP280;9663;48.996;8.334;2023-04-15T14:07:36;99607.84;;;22.03
19061;BMP280;9663;48.996;8.334;2023-04-15T14:10:03;99600.78;;;21.91
19061;BMP280;9663;48.996;8.334;2023-04-15T14:12:29;99616.94;;;21.81
19061;BMP280;9663;48.996;8.334;2023-04-15T14:14:54;99610.19;;;21.65
19061;BMP280;9663;48.996;8.334;2023-04-15T14:17:20;99626.22;;;21.56
19061;BMP280;9663;48.996;8.334;2023-04-15T14:19:46;99618.47;;;21.41
19061;BMP280;9663;48.996;8.334;2023-04-15T14:22:11;99628.44;;;21.33
19061;BMP280;9663;48.996;8.334;2023-04-15T14:24:37;99620.53;;;21.20
19061;BMP280;9663;48.996;8.334;2023-04-15T14:27:03;99627.88;;;21.12
19061;BMP280;9663;48.996;8.334;2023-04-15T14:29:28;99625.81;;;21.03
19061;BMP280;9663;48.996;8.334;2023-04-15T14:31:55;99632.56;;;20.91
19061;BMP280;9663;48.996;8.334;2023-04-15T14:34:21;99635.75;;;20.80